sensor_id;sensor_type;location;lat;lon;timestamp;temperature;humidity
9486;DHT22;4781;48.776;9.200;2022-07-23T00:00:50;24.50;98.80
9486;DHT22;4781;48.776;9.200;2022-07-23T00:03:18;24.40;99.20
9486;DHT22;4781;48.776;9.200;2022-07-23T00:05:47;24.40;99.20
9486;DHT22;4781;48.776;9.200;2022-07-23T00:08:16;24.30;99.40
9486;DHT22;4781;48.776;9.200;2022-07-23T00:10:44;24.30;99.40
9486;DHT22;4781;48.776;9.200;2022-07-23T00:13:13;24.20;99.20
9486;DHT22;4781;48.776;9.200;2022-07-23T00:15:41;24.30;98.90
9486;DHT22;4781;48.776;9.200;2022-07-23T00:18:09;24.20;98.80
9486;DHT22;4781;48.776;9.200;2022-07-23T00:20:38;24.20;99.10
9486;DHT22;4781;48.776;9.200;2022-07-23T00:23:06;24.10;99.30
9486;DHT22;4781;48.776;9.200;2022-07-23T00:25:35;24.00;99.30
9486;DHT22;4781;48.776;9.200;2022-07-23T00:28:04;24.00;99.50
9486;DHT22;4781;48.776;9.200;2022-07-23T00:30:33;23.90;99.40
9486;DHT22;4781;48.776;9.200;2022-07-23T00:33:04;23.90;99.30
9486;DHT22;4781;48.776;9.200;2022-07-23T00:35:36;23.90;99.20
9486;DHT22;4781;48.776;9.200;2022-07-23T00:38:08;23.90;99.40
9486;DHT22;4781;48.776;9.200;2022-07-23T00:40:37;23.80;99.40
9486;DHT22;4781;48.776;9.200;2022-07-23T00:43:06;23.70;99.90
9486;DHT22;4781;48.776;9.200;2022-07-23T00:45:35;23.50;99.90
9486;DHT22;4781;48.776;9.200;2022-07-23T00:48:03;23.10;99.90
9486;DHT22;4781;48.776;9.200;2022-07-23T00:50:32;22.80;99.90
9486;DHT22;4781;48.776;9.200;2022-07-23T00:53:01;22.60;99.90
9486;DHT22;4781;48.776;9.200;2022-07-23T00:55:29;22.60;99.90
9486;DHT22;4781;48.776;9.200;2022-07-23T00:57:58;22.60;99.90
9486;DHT22;4781;48.776;9.200;2022-07-23T01:00:27;22.60;99.90
9486;DHT22;4781;48.776;9.200;2022-07-23T01:02:56;22.60;99.90
9486;DHT22;4781;48.776;9.200;2022-07-23T01:05:24;22.60;99.90
9486;DHT22;4781;48.776;9.200;2022-07-23T01:10:42;22.60;99.90
9486;DHT22;4781;48.776;9.200;2022-07-23T01:13:11;22.60;99.90
9486;DHT22;4781;48.776;9.200;2022-07-23T01:15:40;22.60;99.90
9486;DHT22;4781;48.776;9.200;2022-07-23T01:18:08;22.60;99.90
9486;DHT22;4781;48.776;9.200;2022-07-23T01:20:39;22.70;99.90
9486;DHT22;4781;48.776;9.200;2022-07-23T01:23:07;22.60;99.90
9486;DHT22;4781;48.776;9.200;2022-07-23T01:25:35;22.70;99.90
9486;DHT22;4781;48.776;9.200;2022-07-23T01:28:04;22.70;99.90
9486;DHT22;4781;48.776;9.200;2022-07-23T01:30:32;22.70;99.90
9486;DHT22;4781;48.776;9.200;2022-07-23T01:33:01;22.70;99.90
9486;DHT22;4781;48.776;9.200;2022-07-23T01:35:29;22.70;99.90
9486;DHT22;4781;48.776;9.200;2022-07-23T01:37:57;22.70;99.90
9486;DHT22;4781;48.776;9.200;2022-07-23T01:40:26;22.70;99.90
9486;DHT22;4781;48.776;9.200;2022-07-23T01:42:54;22.70;99.90
9486;DHT22;4781;48.776;9.200;2022-07-23T01:45:23;22.60;99.90
9486;DHT22;4781;48.776;9.200;2022-07-23T01:47:51;22.70;99.90
9486;DHT22;4781;48.776;9.200;2022-07-23T01:50:19;22.60;99.90
9486;DHT22;4781;48.776;9.200;2022-07-23T01:52:48;22.60;99.90
9486;DHT22;4781;48.776;9.200;2022-07-23T01:55:16;22.60;99.90
9486;DHT22;4781;48.776;9.200;2022-07-23T01:57:45;22.50;99.90
9486;DHT22;4781;48.776;9.200;2022-07-23T02:00:14;22.40;99.90
9486;DHT22;4781;48.776;9.200;2022-07-23T02:02:42;22.40;99.90
9486;DHT22;4781;48.776;9.200;2022-07-23T02:05:11;22.30;99.90
9486;DHT22;4781;48.776;9.200;2022-07-23T02:07:39;22.30;99.90
9486;DHT22;4781;48.776;9.200;2022-07-23T02:10:09;22.30;99.90
9486;DHT22;4781;48.776;9.200;2022-07-23T02:12:37;22.30;99.90
9486;DHT22;4781;48.776;9.200;2022-07-23T02:15:06;22.30;99.90
9486;DHT22;4781;48.776;9.200;2022-07-23T02:17:35;22.30;99.90
9486;DHT22;4781;48.776;9.200;2022-07-23T02:20:04;22.30;99.90
9486;DHT22;4781;48.776;9.200;2022-07-23T02:22:33;22.30;99.90
9486;DHT22;4781;48.776;9.200;2022-07-23T02:25:04;22.30;99.90
9486;DHT22;4781;48.776;9.200;2022-07-23T02:27:33;22.20;99.90
9486;DHT22;4781;48.776;9.200;2022-07-23T02:30:03;22.20;99.90
9486;DHT22;4781;48.776;9.200;2022-07-23T02:32:32;22.20;99.90
9486;DHT22;4781;48.776;9.200;2022-07-23T02:35:02;22.10;99.90
9486;DHT22;4781;48.776;9.200;2022-07-23T02:37:31;22.10;99.90
9486;DHT22;4781;48.776;9.200;2022-07-23T02:39:59;22.00;99.90
9486;DHT22;4781;48.776;9.200;2022-07-23T02:42:28;22.00;99.90
9486;DHT22;4781;48.776;9.200;2022-07-23T02:44:56;22.00;99.90
9486;DHT22;4781;48.776;9.200;2022-07-23T02:47:24;21.90;99.90
9486;DHT22;4781;48.776;9.200;2022-07-23T02:49:53;21.90;99.90
9486;DHT22;4781;48.776;9.200;2022-07-23T02:52:21;21.80;99.90
9486;DHT22;4781;48.776;9.200;2022-07-23T02:54:50;21.70;99.90
9486;DHT22;4781;48.776;9.200;2022-07-23T02:57:18;21.70;99.90
9486;DHT22;4781;48.776;9.200;2022-07-23T02:59:47;21.70;99.90
9486;DHT22;4781;48.776;9.200;2022-07-23T03:02:15;21.70;99.90
9486;DHT22;4781;48.776;9.200;2022-07-23T03:04:43;21.60;99.90
9486;DHT22;4781;48.776;9.200;2022-07-23T03:07:12;21.70;99.90
9486;DHT22;4781;48.776;9.200;2022-07-23T03:09:40;21.70;99.90
9486;DHT22;4781;48.776;9.200;2022-07-23T03:12:10;21.60;99.90
9486;DHT22;4781;48.776;9.200;2022-07-23T03:14:38;21.70;99.90
9486;DHT22;4781;48.776;9.200;2022-07-23T03:17:07;21.70;99.90
9486;DHT22;4781;48.776;9.200;2022-07-23T03:19:36;21.80;99.90
9486;DHT22;4781;48.776;9.200;2022-07-23T03:22:05;21.80;99.90
9486;DHT22;4781;48.776;9.200;2022-07-23T03:24:33;21.80;99.90
9486;DHT22;4781;48.776;9.200;2022-07-23T03:27:22;21.80;99.90
9486;DHT22;4781;48.776;9.200;2022-07-23T03:29:53;21.90;99.90
9486;DHT22;4781;48.776;9.200;2022-07-23T03:32:23;21.80;99.90
9486;DHT22;4781;48.776;9.200;2022-07-23T03:34:52;21.90;99.90
9486;DHT22;4781;48.776;9.200;2022-07-23T03:37:21;21.90;99.90
9486;DHT22;4781;48.776;9.200;2022-07-23T03:39:49;21.90;99.90
9486;DHT22;4781;48.776;9.200;2022-07-23T03:42:17;21.90;99.90
9486;DHT22;4781;48.776;9.200;2022-07-23T03:44:46;21.90;99.90
9486;DHT22;4781;48.776;9.200;2022-07-23T03:47:14;21.90;99.90
9486;DHT22;4781;48.776;9.200;2022-07-23T03:49:43;21.80;99.90
9486;DHT22;4781;48.776;9.200;2022-07-23T03:52:12;21.80;99.90
9486;DHT22;4781;48.776;9.200;2022-07-23T03:54:40;21.80;99.90
9486;DHT22;4781;48.776;9.200;2022-07-23T03:57:08;21.70;99.90
9486;DHT22;4781;48.776;9.200;2022-07-23T03:59:37;21.70;99.90
9486;DHT22;4781;48.776;9.200;2022-07-23T04:02:05;21.60;99.90
9486;DHT22;4781;48.776;9.200;2022-07-23T04:04:34;21.60;99.90
9486;DHT22;4781;48.776;9.200;2022-07-23T04:07:02;21.50;99.90
9486;DHT22;4781;48.776;9.200;2022-07-23T04:09:30;21.50;99.90
9486;DHT22;4781;48.776;9.200;2022-07-23T04:11:59;21.50;99.90
9486;DHT22;4781;48.776;9.200;2022-07-23T04:14:27;21.60;99.90
9486;DHT22;4781;48.776;9.200;2022-07-23T04:16:56;21.60;99.90
9486;DHT22;4781;48.776;9.200;2022-07-23T04:19:25;21.70;99.90
9486;DHT22;4781;48.776;9.200;2022-07-23T04:21:53;21.70;99.90
9486;DHT22;4781;48.776;9.200;2022-07-23T04:24:22;21.80;99.90
9486;DHT22;4781;48.776;9.200;2022-07-23T04:26:50;21.80;99.90
9486;DHT22;4781;48.776;9.200;2022-07-23T04:29:19;21.80;99.90
9486;DHT22;4781;48.776;9.200;2022-07-23T04:31:48;21.80;99.90
9486;DHT22;4781;48.776;9.200;2022-07-23T04:34:16;21.80;99.90
9486;DHT22;4781;48.776;9.200;2022-07-23T04:36:45;21.80;99.90
9486;DHT22;4781;48.776;9.200;2022-07-23T04:39:13;21.90;99.90
9486;DHT22;4781;48.776;9.200;2022-07-23T04:41:42;21.90;99.90
9486;DHT22;4781;48.776;9.200;2022-07-23T04:44:10;21.90;99.90
9486;DHT22;4781;48.776;9.200;2022-07-23T04:46:38;22.00;99.90
9486;DHT22;4781;48.776;9.200;2022-07-23T04:49:07;21.90;99.90
9486;DHT22;4781;48.776;9.200;2022-07-23T04:51:36;22.00;99.90
9486;DHT22;4781;48.776;9.200;2022-07-23T04:54:04;22.00;99.90
9486;DHT22;4781;48.776;9.200;2022-07-23T04:56:33;22.10;99.90
9486;DHT22;4781;48.776;9.200;2022-07-23T04:59:01;22.10;99.90
9486;DHT22;4781;48.776;9.200;2022-07-23T05:01:29;22.20;99.90
9486;DHT22;4781;48.776;9.200;2022-07-23T05:03:58;22.20;99.90
9486;DHT22;4781;48.776;9.200;2022-07-23T05:06:26;22.20;99.90
9486;DHT22;4781;48.776;9.200;2022-07-23T05:08:54;22.20;99.90
9486;DHT22;4781;48.776;9.200;2022-07-23T05:11:23;22.20;99.90
9486;DHT22;4781;48.776;9.200;2022-07-23T05:13:51;22.20;99.90
9486;DHT22;4781;48.776;9.200;2022-07-23T05:16:20;22.30;99.90
9486;DHT22;4781;48.776;9.200;2022-07-23T05:18:48;22.40;99.90
9486;DHT22;4781;48.776;9.200;2022-07-23T05:21:16;22.40;99.90
9486;DHT22;4781;48.776;9.200;2022-07-23T05:23:45;22.40;99.90
9486;DHT22;4781;48.776;9.200;2022-07-23T05:26:13;22.30;99.90
9486;DHT22;4781;48.776;9.200;2022-07-23T05:28:42;22.30;99.90
9486;DHT22;4781;48.776;9.200;2022-07-23T05:31:10;22.30;99.90
9486;DHT22;4781;48.776;9.200;2022-07-23T05:33:39;22.40;99.90
9486;DHT22;4781;48.776;9.200;2022-07-23T05:36:07;22.40;99.90
9486;DHT22;4781;48.776;9.200;2022-07-23T05:38:36;22.50;99.90
9486;DHT22;4781;48.776;9.200;2022-07-23T05:41:04;22.60;99.90
9486;DHT22;4781;48.776;9.200;2022-07-23T05:43:33;22.70;99.90
9486;DHT22;4781;48.776;9.200;2022-07-23T05:46:01;22.70;99.90
9486;DHT22;4781;48.776;9.200;2022-07-23T05:48:29;22.70;99.90
9486;DHT22;4781;48.776;9.200;2022-07-23T05:50:58;22.70;99.90
9486;DHT22;4781;48.776;9.200;2022-07-23T05:53:27;22.70;99.90
9486;DHT22;4781;48.776;9.200;2022-07-23T05:55:55;22.70;99.90
9486;DHT22;4781;48.776;9.200;2022-07-23T05:58:24;22.80;99.90
9486;DHT22;4781;48.776;9.200;2022-07-23T06:00:52;22.80;99.90
9486;DHT22;4781;48.776;9.200;2022-07-23T06:03:20;22.80;99.90
9486;DHT22;4781;48.776;9.200;2022-07-23T06:05:49;22.80;99.90
9486;DHT22;4781;48.776;9.200;2022-07-23T06:08:17;22.80;99.90
9486;DHT22;4781;48.776;9.200;2022-07-23T06:10:46;22.80;99.90
9486;DHT22;4781;48.776;9.200;2022-07-23T06:13:14;22.80;99.90
9486;DHT22;4781;48.776;9.200;2022-07-23T06:15:46;22.80;99.90
9486;DHT22;4781;48.776;9.200;2022-07-23T06:18:15;22.80;99.90
9486;DHT22;4781;48.776;9.200;2022-07-23T06:20:43;22.80;99.90
9486;DHT22;4781;48.776;9.200;2022-07-23T06:23:12;22.90;99.90
9486;DHT22;4781;48.776;9.200;2022-07-23T06:25:40;23.00;99.90
9486;DHT22;4781;48.776;9.200;2022-07-23T06:28:08;23.10;99.90
9486;DHT22;4781;48.776;9.200;2022-07-23T06:30:37;23.10;99.90
9486;DHT22;4781;48.776;9.200;2022-07-23T06:33:05;23.20;99.90
9486;DHT22;4781;48.776;9.200;2022-07-23T06:35:34;23.20;99.90
9486;DHT22;4781;48.776;9.200;2022-07-23T06:38:02;23.30;99.90
9486;DHT22;4781;48.776;9.200;2022-07-23T06:40:31;23.40;99.90
9486;DHT22;4781;48.776;9.200;2022-07-23T06:42:59;23.40;99.90
9486;DHT22;4781;48.776;9.200;2022-07-23T06:45:27;23.40;99.90
9486;DHT22;4781;48.776;9.200;2022-07-23T06:47:56;23.40;99.90
9486;DHT22;4781;48.776;9.200;2022-07-23T06:50:24;23.50;99.90
9486;DHT22;4781;48.776;9.200;2022-07-23T06:52:53;23.50;99.90
9486;DHT22;4781;48.776;9.200;2022-07-23T06:55:21;23.50;99.90
9486;DHT22;4781;48.776;9.200;2022-07-23T06:57:50;23.40;99.90
9486;DHT22;4781;48.776;9.200;2022-07-23T07:00:19;23.40;99.90
9486;DHT22;4781;48.776;9.200;2022-07-23T07:02:47;23.40;99.90
9486;DHT22;4781;48.776;9.200;2022-07-23T07:05:16;23.40;99.90
9486;DHT22;4781;48.776;9.200;2022-07-23T07:07:44;23.40;99.90
9486;DHT22;4781;48.776;9.200;2022-07-23T07:10:12;23.30;99.90
9486;DHT22;4781;48.776;9.200;2022-07-23T07:12:42;23.30;99.90
9486;DHT22;4781;48.776;9.200;2022-07-23T07:15:11;23.20;99.90
9486;DHT22;4781;48.776;9.200;2022-07-23T07:17:39;23.20;99.90
9486;DHT22;4781;48.776;9.200;2022-07-23T07:20:09;23.20;99.90
9486;DHT22;4781;48.776;9.200;2022-07-23T07:22:38;23.20;99.90
9486;DHT22;4781;48.776;9.200;2022-07-23T07:25:06;23.20;99.90
9486;DHT22;4781;48.776;9.200;2022-07-23T07:27:35;23.20;99.90
9486;DHT22;4781;48.776;9.200;2022-07-23T07:30:04;23.10;99.90
9486;DHT22;4781;48.776;9.200;2022-07-23T07:32:34;23.10;99.90
9486;DHT22;4781;48.776;9.200;2022-07-23T07:35:04;23.00;99.90
9486;DHT22;4781;48.776;9.200;2022-07-23T07:37:33;22.90;99.90
9486;DHT22;4781;48.776;9.200;2022-07-23T07:40:03;22.80;99.90
9486;DHT22;4781;48.776;9.200;2022-07-23T07:42:31;22.80;99.90
9486;DHT22;4781;48.776;9.200;2022-07-23T07:45:00;22.80;99.90
9486;DHT22;4781;48.776;9.200;2022-07-23T07:47:28;22.90;99.90
9486;DHT22;4781;48.776;9.200;2022-07-23T07:49:57;22.90;99.90
9486;DHT22;4781;48.776;9.200;2022-07-23T07:52:25;23.00;99.90
9486;DHT22;4781;48.776;9.200;2022-07-23T07:54:54;23.10;99.90
9486;DHT22;4781;48.776;9.200;2022-07-23T07:57:22;23.20;99.90
9486;DHT22;4781;48.776;9.200;2022-07-23T07:59:50;23.20;99.90
9486;DHT22;4781;48.776;9.200;2022-07-23T08:02:19;23.20;99.90
9486;DHT22;4781;48.776;9.200;2022-07-23T08:04:47;23.20;99.90
9486;DHT22;4781;48.776;9.200;2022-07-23T08:07:16;23.30;99.90
9486;DHT22;4781;48.776;9.200;2022-07-23T08:09:44;23.30;99.90
9486;DHT22;4781;48.776;9.200;2022-07-23T08:12:12;23.40;99.90
9486;DHT22;4781;48.776;9.200;2022-07-23T08:14:41;23.50;99.90
9486;DHT22;4781;48.776;9.200;2022-07-23T08:17:11;23.50;99.90
9486;DHT22;4781;48.776;9.200;2022-07-23T08:19:39;23.60;99.90
9486;DHT22;4781;48.776;9.200;2022-07-23T08:22:07;23.30;99.90
9486;DHT22;4781;48.776;9.200;2022-07-23T08:24:36;23.40;99.90
9486;DHT22;4781;48.776;9.200;2022-07-23T08:27:04;23.50;99.90
9486;DHT22;4781;48.776;9.200;2022-07-23T08:29:33;23.50;99.90
9486;DHT22;4781;48.776;9.200;2022-07-23T08:32:01;23.40;99.90
9486;DHT22;4781;48.776;9.200;2022-07-23T08:34:29;23.20;99.90
9486;DHT22;4781;48.776;9.200;2022-07-23T08:36:58;23.00;99.90
9486;DHT22;4781;48.776;9.200;2022-07-23T08:39:26;23.10;99.90
9486;DHT22;4781;48.776;9.200;2022-07-23T08:41:55;23.10;99.90
9486;DHT22;4781;48.776;9.200;2022-07-23T08:44:23;23.30;99.90
9486;DHT22;4781;48.776;9.200;2022-07-23T08:46:52;23.40;99.90
9486;DHT22;4781;48.776;9.200;2022-07-23T08:49:21;23.40;99.90
9486;DHT22;4781;48.776;9.200;2022-07-23T08:51:49;23.40;99.90
9486;DHT22;4781;48.776;9.200;2022-07-23T08:54:18;23.60;99.90
9486;DHT22;4781;48.776;9.200;2022-07-23T08:56:46;23.70;99.90
9486;DHT22;4781;48.776;9.200;2022-07-23T08:59:15;24.00;99.90
9486;DHT22;4781;48.776;9.200;2022-07-23T09:01:44;24.20;99.90
9486;DHT22;4781;48.776;9.200;2022-07-23T09:04:12;24.30;99.90
9486;DHT22;4781;48.776;9.200;2022-07-23T09:06:40;24.40;99.90
9486;DHT22;4781;48.776;9.200;2022-07-23T09:09:20;24.60;99.90
9486;DHT22;4781;48.776;9.200;2022-07-23T09:12:01;25.00;99.90
9486;DHT22;4781;48.776;9.200;2022-07-23T09:14:42;25.40;99.90
9486;DHT22;4781;48.776;9.200;2022-07-23T09:17:16;25.70;99.90
9486;DHT22;4781;48.776;9.200;2022-07-23T09:19:45;25.80;99.90
9486;DHT22;4781;48.776;9.200;2022-07-23T09:22:25;26.00;99.90
9486;DHT22;4781;48.776;9.200;2022-07-23T09:27:56;26.30;99.90
9486;DHT22;4781;48.776;9.200;2022-07-23T09:30:29;26.60;99.90
9486;DHT22;4781;48.776;9.200;2022-07-23T09:33:13;26.70;99.90
9486;DHT22;4781;48.776;9.200;2022-07-23T09:35:54;26.50;99.90
9486;DHT22;4781;48.776;9.200;2022-07-23T09:38:24;26.10;99.90
9486;DHT22;4781;48.776;9.200;2022-07-23T09:41:07;26.60;99.90
9486;DHT22;4781;48.776;9.200;2022-07-23T09:43:37;26.50;99.90
9486;DHT22;4781;48.776;9.200;2022-07-23T09:46:19;26.90;99.90
9486;DHT22;4781;48.776;9.200;2022-07-23T09:48:56;27.20;99.90
9486;DHT22;4781;48.776;9.200;2022-07-23T09:51:23;27.50;99.90
9486;DHT22;4781;48.776;9.200;2022-07-23T09:54:04;27.50;99.90
9486;DHT22;4781;48.776;9.200;2022-07-23T09:56:33;27.50;98.00
9486;DHT22;4781;48.776;9.200;2022-07-23T09:59:03;27.60;98.50
9486;DHT22;4781;48.776;9.200;2022-07-23T10:01:33;27.80;99.20
9486;DHT22;4781;48.776;9.200;2022-07-23T10:04:02;28.20;99.60
9486;DHT22;4781;48.776;9.200;2022-07-23T10:06:31;28.50;99.90
9486;DHT22;4781;48.776;9.200;2022-07-23T10:09:00;28.60;98.80
9486;DHT22;4781;48.776;9.200;2022-07-23T10:11:31;28.40;99.00
9486;DHT22;4781;48.776;9.200;2022-07-23T10:14:00;28.60;98.50
9486;DHT22;4781;48.776;9.200;2022-07-23T10:16:32;28.70;98.70
9486;DHT22;4781;48.776;9.200;2022-07-23T10:19:00;28.70;98.40
9486;DHT22;4781;48.776;9.200;2022-07-23T10:21:49;28.70;98.10
9486;DHT22;4781;48.776;9.200;2022-07-23T10:24:24;28.70;98.10
9486;DHT22;4781;48.776;9.200;2022-07-23T10:30:07;28.50;97.50
9486;DHT22;4781;48.776;9.200;2022-07-23T10:44:23;29.00;96.70
9486;DHT22;4781;48.776;9.200;2022-07-23T10:46:59;29.10;95.30
9486;DHT22;4781;48.776;9.200;2022-07-23T10:49:33;29.10;96.40
9486;DHT22;4781;48.776;9.200;2022-07-23T10:52:21;29.40;96.30
9486;DHT22;4781;48.776;9.200;2022-07-23T10:55:38;29.70;94.30
9486;DHT22;4781;48.776;9.200;2022-07-23T10:57:30;29.80;93.20
9486;DHT22;4781;48.776;9.200;2022-07-23T11:02:44;30.00;93.90
9486;DHT22;4781;48.776;9.200;2022-07-23T11:05:18;29.70;92.60
9486;DHT22;4781;48.776;9.200;2022-07-23T11:10:46;30.10;94.30
9486;DHT22;4781;48.776;9.200;2022-07-23T11:16:05;30.30;93.90
9486;DHT22;4781;48.776;9.200;2022-07-23T11:24:17;30.40;94.50
9486;DHT22;4781;48.776;9.200;2022-07-23T11:26:59;30.60;93.60
9486;DHT22;4781;48.776;9.200;2022-07-23T11:32:03;30.80;92.50
9486;DHT22;4781;48.776;9.200;2022-07-23T11:34:35;30.70;93.30
9486;DHT22;4781;48.776;9.200;2022-07-23T11:37:08;30.60;94.10
9486;DHT22;4781;48.776;9.200;2022-07-23T11:39:37;30.60;93.60
9486;DHT22;4781;48.776;9.200;2022-07-23T11:42:07;30.50;93.30
9486;DHT22;4781;48.776;9.200;2022-07-23T11:44:39;30.40;93.10
9486;DHT22;4781;48.776;9.200;2022-07-23T11:47:09;30.30;93.30
9486;DHT22;4781;48.776;9.200;2022-07-23T11:49:52;30.30;93.40
9486;DHT22;4781;48.776;9.200;2022-07-23T11:52:22;30.50;93.60
9486;DHT22;4781;48.776;9.200;2022-07-23T11:54:59;30.70;93.60
9486;DHT22;4781;48.776;9.200;2022-07-23T11:57:34;30.80;93.70
9486;DHT22;4781;48.776;9.200;2022-07-23T12:00:16;30.70;93.10
9486;DHT22;4781;48.776;9.200;2022-07-23T12:02:58;30.70;93.40
9486;DHT22;4781;48.776;9.200;2022-07-23T12:05:27;31.00;93.90
9486;DHT22;4781;48.776;9.200;2022-07-23T12:07:58;31.10;93.30
9486;DHT22;4781;48.776;9.200;2022-07-23T12:10:36;30.90;93.20
9486;DHT22;4781;48.776;9.200;2022-07-23T12:13:07;30.70;93.10
9486;DHT22;4781;48.776;9.200;2022-07-23T12:15:43;30.60;93.70
9486;DHT22;4781;48.776;9.200;2022-07-23T12:18:19;30.90;93.30
9486;DHT22;4781;48.776;9.200;2022-07-23T12:20:51;31.10;93.30
9486;DHT22;4781;48.776;9.200;2022-07-23T12:23:21;31.20;92.40
9486;DHT22;4781;48.776;9.200;2022-07-23T12:25:52;31.00;92.10
9486;DHT22;4781;48.776;9.200;2022-07-23T12:28:27;31.10;94.30
9486;DHT22;4781;48.776;9.200;2022-07-23T12:30:57;31.20;92.90
9486;DHT22;4781;48.776;9.200;2022-07-23T12:33:27;31.30;92.40
9486;DHT22;4781;48.776;9.200;2022-07-23T12:35:59;31.30;92.10
9486;DHT22;4781;48.776;9.200;2022-07-23T12:38:39;31.30;92.00
9486;DHT22;4781;48.776;9.200;2022-07-23T12:41:11;31.30;92.00
9486;DHT22;4781;48.776;9.200;2022-07-23T12:43:42;31.10;92.00
9486;DHT22;4781;48.776;9.200;2022-07-23T12:46:16;31.10;92.20
9486;DHT22;4781;48.776;9.200;2022-07-23T12:48:51;31.10;91.70
9486;DHT22;4781;48.776;9.200;2022-07-23T12:51:28;31.00;91.90
9486;DHT22;4781;48.776;9.200;2022-07-23T12:54:06;31.30;92.50
9486;DHT22;4781;48.776;9.200;2022-07-23T12:56:38;31.40;92.00
9486;DHT22;4781;48.776;9.200;2022-07-23T12:59:12;31.40;92.10
9486;DHT22;4781;48.776;9.200;2022-07-23T13:01:44;31.20;91.70
9486;DHT22;4781;48.776;9.200;2022-07-23T13:04:20;30.90;92.20
9486;DHT22;4781;48.776;9.200;2022-07-23T13:06:52;30.80;92.90
9486;DHT22;4781;48.776;9.200;2022-07-23T13:09:46;30.70;92.60
9486;DHT22;4781;48.776;9.200;2022-07-23T13:12:15;30.80;92.30
9486;DHT22;4781;48.776;9.200;2022-07-23T13:14:43;30.80;92.20
9486;DHT22;4781;48.776;9.200;2022-07-23T13:17:12;30.70;92.30
9486;DHT22;4781;48.776;9.200;2022-07-23T13:19:40;30.50;92.00
9486;DHT22;4781;48.776;9.200;2022-07-23T13:22:08;30.30;91.70
9486;DHT22;4781;48.776;9.200;2022-07-23T13:24:37;30.20;91.30
9486;DHT22;4781;48.776;9.200;2022-07-23T13:27:06;30.30;91.20
9486;DHT22;4781;48.776;9.200;2022-07-23T13:29:35;30.50;91.40
9486;DHT22;4781;48.776;9.200;2022-07-23T13:32:03;30.70;91.60
9486;DHT22;4781;48.776;9.200;2022-07-23T13:34:32;30.70;91.00
9486;DHT22;4781;48.776;9.200;2022-07-23T13:37:00;30.80;90.50
9486;DHT22;4781;48.776;9.200;2022-07-23T13:39:29;30.90;90.60
9486;DHT22;4781;48.776;9.200;2022-07-23T13:41:57;30.90;90.60
9486;DHT22;4781;48.776;9.200;2022-07-23T13:44:25;31.10;90.90
9486;DHT22;4781;48.776;9.200;2022-07-23T13:46:54;31.10;90.40
9486;DHT22;4781;48.776;9.200;2022-07-23T13:49:22;31.10;90.60
9486;DHT22;4781;48.776;9.200;2022-07-23T13:51:51;31.20;91.30
9486;DHT22;4781;48.776;9.200;2022-07-23T13:54:19;31.50;91.90
9486;DHT22;4781;48.776;9.200;2022-07-23T13:56:47;31.70;91.40
9486;DHT22;4781;48.776;9.200;2022-07-23T13:59:16;31.70;91.00
9486;DHT22;4781;48.776;9.200;2022-07-23T14:01:44;31.70;91.00
9486;DHT22;4781;48.776;9.200;2022-07-23T14:04:13;31.20;88.20
9486;DHT22;4781;48.776;9.200;2022-07-23T14:06:41;30.70;91.30
9486;DHT22;4781;48.776;9.200;2022-07-23T14:09:09;30.60;90.20
9486;DHT22;4781;48.776;9.200;2022-07-23T14:11:38;30.50;90.30
9486;DHT22;4781;48.776;9.200;2022-07-23T14:14:06;30.40;91.30
9486;DHT22;4781;48.776;9.200;2022-07-23T14:16:35;30.10;91.70
9486;DHT22;4781;48.776;9.200;2022-07-23T14:19:04;30.20;91.90
9486;DHT22;4781;48.776;9.200;2022-07-23T14:21:32;30.20;91.30
9486;DHT22;4781;48.776;9.200;2022-07-23T14:24:00;30.30;91.60
9486;DHT22;4781;48.776;9.200;2022-07-23T14:26:29;30.60;91.30
9486;DHT22;4781;48.776;9.200;2022-07-23T14:28:57;30.90;91.10
9486;DHT22;4781;48.776;9.200;2022-07-23T14:31:26;31.10;90.80
9486;DHT22;4781;48.776;9.200;2022-07-23T14:33:55;31.10;90.30
9486;DHT22;4781;48.776;9.200;2022-07-23T14:36:24;31.20;90.20
9486;DHT22;4781;48.776;9.200;2022-07-23T14:38:52;31.40;89.50
9486;DHT22;4781;48.776;9.200;2022-07-23T14:41:21;31.40;88.90
9486;DHT22;4781;48.776;9.200;2022-07-23T14:43:49;31.40;86.50
9486;DHT22;4781;48.776;9.200;2022-07-23T14:46:17;31.40;87.10
9486;DHT22;4781;48.776;9.200;2022-07-23T14:48:46;31.20;88.50
9486;DHT22;4781;48.776;9.200;2022-07-23T14:51:14;31.20;90.10
9486;DHT22;4781;48.776;9.200;2022-07-23T14:53:42;31.40;89.30
9486;DHT22;4781;48.776;9.200;2022-07-23T14:56:11;31.50;87.50
9486;DHT22;4781;48.776;9.200;2022-07-23T14:58:41;31.70;88.00
9486;DHT22;4781;48.776;9.200;2022-07-23T15:01:09;31.70;87.00
9486;DHT22;4781;48.776;9.200;2022-07-23T15:03:38;31.70;84.00
9486;DHT22;4781;48.776;9.200;2022-07-23T15:06:06;31.80;86.80
9486;DHT22;4781;48.776;9.200;2022-07-23T15:08:35;31.80;83.20
9486;DHT22;4781;48.776;9.200;2022-07-23T15:11:03;31.30;84.10
9486;DHT22;4781;48.776;9.200;2022-07-23T15:13:31;31.20;83.30
9486;DHT22;4781;48.776;9.200;2022-07-23T15:16:00;31.30;85.40
9486;DHT22;4781;48.776;9.200;2022-07-23T15:18:28;31.20;85.40
9486;DHT22;4781;48.776;9.200;2022-07-23T15:20:57;30.90;84.30
9486;DHT22;4781;48.776;9.200;2022-07-23T15:23:25;30.90;85.20
9486;DHT22;4781;48.776;9.200;2022-07-23T15:25:55;31.00;85.90
9486;DHT22;4781;48.776;9.200;2022-07-23T15:28:23;31.00;85.50
9486;DHT22;4781;48.776;9.200;2022-07-23T15:30:52;31.00;85.60
9486;DHT22;4781;48.776;9.200;2022-07-23T15:33:20;31.00;87.10
9486;DHT22;4781;48.776;9.200;2022-07-23T15:35:49;31.00;86.80
9486;DHT22;4781;48.776;9.200;2022-07-23T15:38:19;30.90;87.30
9486;DHT22;4781;48.776;9.200;2022-07-23T15:40:48;31.10;88.40
9486;DHT22;4781;48.776;9.200;2022-07-23T15:43:16;31.10;88.80
9486;DHT22;4781;48.776;9.200;2022-07-23T15:45:44;31.00;87.90
9486;DHT22;4781;48.776;9.200;2022-07-23T15:48:13;31.00;87.70
9486;DHT22;4781;48.776;9.200;2022-07-23T15:50:42;30.90;86.20
9486;DHT22;4781;48.776;9.200;2022-07-23T15:53:10;31.00;87.90
9486;DHT22;4781;48.776;9.200;2022-07-23T15:55:39;31.00;86.60
9486;DHT22;4781;48.776;9.200;2022-07-23T15:58:10;31.10;86.20
9486;DHT22;4781;48.776;9.200;2022-07-23T16:00:39;30.90;87.10
9486;DHT22;4781;48.776;9.200;2022-07-23T16:03:08;31.00;86.20
9486;DHT22;4781;48.776;9.200;2022-07-23T16:05:36;31.00;85.70
9486;DHT22;4781;48.776;9.200;2022-07-23T16:08:05;30.90;86.10
9486;DHT22;4781;48.776;9.200;2022-07-23T16:10:33;30.70;86.00
9486;DHT22;4781;48.776;9.200;2022-07-23T16:13:02;30.60;87.00
9486;DHT22;4781;48.776;9.200;2022-07-23T16:15:30;30.50;87.10
9486;DHT22;4781;48.776;9.200;2022-07-23T16:17:59;30.20;87.30
9486;DHT22;4781;48.776;9.200;2022-07-23T16:20:28;30.20;87.40
9486;DHT22;4781;48.776;9.200;2022-07-23T16:22:56;30.10;88.20
9486;DHT22;4781;48.776;9.200;2022-07-23T16:25:25;30.10;88.30
9486;DHT22;4781;48.776;9.200;2022-07-23T16:27:53;30.00;88.90
9486;DHT22;4781;48.776;9.200;2022-07-23T16:30:22;29.90;88.60
9486;DHT22;4781;48.776;9.200;2022-07-23T16:32:50;29.90;86.50
9486;DHT22;4781;48.776;9.200;2022-07-23T16:35:18;29.70;86.00
9486;DHT22;4781;48.776;9.200;2022-07-23T16:37:47;29.60;86.70
9486;DHT22;4781;48.776;9.200;2022-07-23T16:40:15;29.50;89.10
9486;DHT22;4781;48.776;9.200;2022-07-23T16:42:44;29.30;89.80
9486;DHT22;4781;48.776;9.200;2022-07-23T16:45:12;29.10;89.60
9486;DHT22;4781;48.776;9.200;2022-07-23T16:47:41;29.10;90.40
9486;DHT22;4781;48.776;9.200;2022-07-23T16:50:10;28.90;90.40
9486;DHT22;4781;48.776;9.200;2022-07-23T16:52:38;28.80;90.50
9486;DHT22;4781;48.776;9.200;2022-07-23T16:55:07;28.80;90.60